Time;durP1;ratioP1;P1;durP2;ratioP2;P2;SDS_P1;SDS_P2;PMS_P1;PMS_P2;Temp;Humidity;BMP_temperature;BMP_pressure;BME280_temperature;BME280_humidity;BME280_pressure;Samples;Min_cycle;Max_cycle;Signal;HPM_P1;HPM_P2
2022/11/06 00:01:08;;;;;;;14.07;11.50;;;;;;;5.33;nan;98520.28;5034583;28;20232;-70
2022/11/06 00:03:35;;;;;;;13.03;11.60;;;;;;;5.41;nan;98520.25;5034907;28;20205;-70
2022/11/06 00:08:54;;;;;;;13.43;11.13;;;;;;;5.38;nan;98506.59;5034594;28;20653;-70
2022/11/06 00:11:20;;;;;;;13.17;11.80;;;;;;;5.41;nan;98504.44;5034629;28;20226;-70
2022/11/06 00:13:47;;;;;;;16.43;11.77;;;;;;;5.47;nan;98510.81;5033381;28;20216;-70
2022/11/06 00:16:14;;;;;;;16.07;11.40;;;;;;;5.50;nan;98497.25;5034648;28;20312;-70
2022/11/06 00:18:42;;;;;;;13.73;11.50;;;;;;;5.48;nan;98494.00;5034503;28;20222;-70
2022/11/06 00:21:16;;;;;;;13.80;11.60;;;;;;;5.41;nan;98493.88;5034335;28;20229;-70
2022/11/06 00:23:43;;;;;;;13.93;11.13;;;;;;;5.44;nan;98490.91;5034498;28;20185;-70
2022/11/06 00:26:16;;;;;;;12.53;10.73;;;;;;;5.45;nan;98492.53;5034408;28;20206;-70
2022/11/06 00:28:43;;;;;;;15.63;11.60;;;;;;;5.43;nan;98491.06;5034418;28;20190;-70
2022/11/06 00:31:13;;;;;;;13.83;11.27;;;;;;;5.38;nan;98493.41;5034294;28;20236;-71
2022/11/06 00:33:40;;;;;;;16.70;12.03;;;;;;;5.38;nan;98506.59;5034028;28;20664;-70
2022/11/06 00:36:10;;;;;;;16.63;11.13;;;;;;;5.39;nan;98509.03;5034782;28;20649;-69
2022/11/06 00:38:37;;;;;;;16.70;12.27;;;;;;;5.28;nan;98519.16;5034214;28;20301;-70
2022/11/06 00:41:05;;;;;;;14.43;12.17;;;;;;;5.34;nan;98510.59;5034164;28;20232;-70
2022/11/06 00:43:32;;;;;;;13.13;11.27;;;;;;;5.34;nan;98516.66;5034137;28;20210;-70
2022/11/06 00:46:07;;;;;;;13.60;11.90;;;;;;;5.33;nan;98522.13;5034973;28;20611;-70
2022/11/06 00:48:35;;;;;;;13.27;11.80;;;;;;;5.33;nan;98516.84;5034126;28;20233;-70
2022/11/06 00:51:21;;;;;;;13.93;11.57;;;;;;;5.32;nan;98520.47;5034788;28;20229;-70
2022/11/06 00:53:48;;;;;;;13.90;12.13;;;;;;;5.30;nan;98520.63;5034060;28;20194;-70
2022/11/06 00:56:17;;;;;;;14.30;11.97;;;;;;;5.19;nan;98520.22;5033930;28;20228;-70
2022/11/06 00:58:45;;;;;;;13.97;11.90;;;;;;;5.17;nan;98520.41;5033861;28;20313;-70
2022/11/06 01:01:17;;;;;;;13.53;11.27;;;;;;;5.09;nan;98530.16;5033759;28;20228;-70
2022/11/06 01:03:46;;;;;;;13.40;12.00;;;;;;;5.07;nan;98513.72;5033506;28;20201;-70
2022/11/06 01:06:16;;;;;;;13.17;11.37;;;;;;;5.15;nan;98516.31;5033736;28;20205;-70
2022/11/06 01:08:42;;;;;;;13.03;11.73;;;;;;;5.18;nan;98505.41;5033442;28;20727;-70
2022/11/06 01:11:12;;;;;;;13.10;11.70;;;;;;;5.21;nan;98507.69;5033633;28;20236;-70
2022/11/06 01:13:38;;;;;;;14.43;11.70;;;;;;;5.17;nan;98506.41;5033346;28;20212;-70
2022/11/06 01:16:08;;;;;;;13.53;11.87;;;;;;;5.19;nan;98509.66;5034035;28;20296;-70
2022/11/06 01:18:35;;;;;;;14.27;11.67;;;;;;;5.13;nan;98513.00;5033548;28;20202;-70
2022/11/06 01:21:16;;;;;;;12.80;10.97;;;;;;;5.11;nan;98517.66;5033362;28;20233;-70
2022/11/06 01:23:42;;;;;;;13.47;10.90;;;;;;;4.97;nan;98506.00;5033153;28;20190;-70
2022/11/06 01:26:10;;;;;;;12.13;10.83;;;;;;;5.03;nan;98505.34;5033135;28;20216;-70
2022/11/06 01:28:38;;;;;;;11.97;10.17;;;;;;;4.99;nan;98503.22;5033173;28;20699;-70
2022/11/06 01:31:10;;;;;;;11.90;10.40;;;;;;;4.96;nan;98507.00;5033447;28;20222;-69
2022/11/06 01:33:36;;;;;;;13.20;10.83;;;;;;;5.00;nan;98507.47;5033521;28;20190;-70
2022/11/06 01:36:03;;;;;;;15.07;11.50;;;;;;;5.03;nan;98515.03;5033460;28;20213;-70
2022/11/06 01:38:29;;;;;;;14.00;10.60;;;;;;;5.00;nan;98515.38;5033078;28;20210;-70
2022/11/06 01:40:56;;;;;;;13.23;10.80;;;;;;;4.95;nan;98513.28;5033216;28;20240;-70
2022/11/06 01:43:45;;;;;;;12.57;10.87;;;;;;;4.88;nan;98511.50;5033023;28;20212;-70
2022/11/06 01:46:11;;;;;;;11.73;9.80;;;;;;;4.86;nan;98509.03;5033334;28;20205;-70
2022/11/06 01:48:40;;;;;;;12.00;10.77;;;;;;;4.77;nan;98512.72;5033368;28;20206;-70
2022/11/06 01:51:07;;;;;;;12.87;11.13;;;;;;;4.72;nan;98511.56;5033075;28;20225;-69
2022/11/06 01:53:35;;;;;;;11.57;10.37;;;;;;;4.71;nan;98504.66;5033239;28;20201;-70
2022/11/06 01:56:05;;;;;;;11.80;10.40;;;;;;;4.69;nan;98504.00;5032862;28;20201;-70
2022/11/06 01:58:34;;;;;;;12.10;10.37;;;;;;;4.70;nan;98503.03;5033420;28;20201;-70
2022/11/06 02:01:01;;;;;;;10.63;9.53;;;;;;;4.69;nan;98504.00;5032718;28;20308;-69
2022/11/06 02:03:28;;;;;;;12.20;10.37;;;;;;;4.63;nan;98500.25;5032030;28;20206;-70
2022/11/06 02:05:56;;;;;;;13.67;10.63;;;;;;;4.63;nan;98502.06;5033057;28;20205;-70
2022/11/06 02:08:23;;;;;;;12.47;10.53;;;;;;;4.62;nan;98493.31;5032469;28;20209;-70
2022/11/06 02:10:50;;;;;;;12.03;10.20;;;;;;;4.60;nan;98497.13;5032798;28;20316;-70
2022/11/06 02:13:26;;;;;;;12.37;10.83;;;;;;;4.59;nan;98501.59;5032799;28;20209;-69
2022/11/06 02:16:26;;;;;;;12.80;10.97;;;;;;;4.50;nan;98496.50;5032889;28;20194;-69
2022/11/06 02:19:05;;;;;;;13.37;11.67;;;;;;;4.50;nan;98486.81;5032815;28;20194;-70
2022/11/06 02:22:13;;;;;;;18.50;12.57;;;;;;;4.51;nan;98493.72;5032505;28;20236;-70
2022/11/06 02:24:55;;;;;;;25.73;12.73;;;;;;;4.44;nan;98492.72;5010566;28;20690;-69
2022/11/06 02:27:27;;;;;;;25.47;13.03;;;;;;;4.47;nan;98488.97;5030634;28;20208;-70
2022/11/06 02:30:00;;;;;;;29.70;13.73;;;;;;;4.55;nan;98489.75;5032463;28;20672;-70
2022/11/06 02:32:42;;;;;;;36.10;13.63;;;;;;;4.40;nan;98480.09;5032454;28;20216;-69
2022/11/06 02:35:26;;;;;;;24.60;13.47;;;;;;;4.47;nan;98470.53;5032511;28;20190;-70
2022/11/06 02:37:58;;;;;;;101.90;15.00;;;;;;;4.36;nan;98466.47;5034398;28;20296;-70
2022/11/06 02:40:31;;;;;;;71.97;14.43;;;;;;;4.36;nan;98471.72;5036075;28;20236;-70
2022/11/06 02:43:01;;;;;;;103.43;14.57;;;;;;;4.31;nan;98466.16;5036613;28;20259;-69
2022/11/06 02:45:32;;;;;;;78.33;14.30;;;;;;;4.29;nan;98460.22;5036166;28;20212;-69
2022/11/06 02:48:01;;;;;;;134.00;15.20;;;;;;;4.18;nan;98450.06;5036162;28;20284;-70
2022/11/06 02:50:34;;;;;;;160.83;16.63;;;;;;;4.11;nan;98443.03;5036033;28;20588;-69
2022/11/06 02:53:04;;;;;;;214.23;19.07;;;;;;;4.06;nan;98434.81;5036061;28;20200;-69
2022/11/06 02:55:41;;;;;;;160.23;17.27;;;;;;;4.14;nan;98426.88;5036824;28;20194;-70
2022/11/06 02:58:16;;;;;;;85.07;14.83;;;;;;;4.13;nan;98426.09;5035688;28;20556;-70
2022/11/06 03:00:48;;;;;;;159.60;16.67;;;;;;;4.07;nan;98421.47;5035785;28;20287;-69
2022/11/06 03:03:24;;;;;;;77.93;14.30;;;;;;;4.16;nan;98407.31;5034330;28;20634;-69
2022/11/06 03:06:12;;;;;;;22.70;11.47;;;;;;;4.12;nan;98415.72;5035811;28;20190;-69
2022/11/06 03:09:08;;;;;;;14.30;11.00;;;;;;;4.06;nan;98417.22;5035305;28;20190;-69
2022/11/06 03:11:37;;;;;;;14.60;11.30;;;;;;;4.02;nan;98415.09;5035571;28;20230;-70
2022/11/06 03:14:25;;;;;;;17.57;11.70;;;;;;;3.98;nan;98404.06;5034598;28;20264;-70
2022/11/06 03:17:13;;;;;;;14.10;12.07;;;;;;;3.99;nan;98405.75;5035598;28;20190;-69
2022/11/06 03:19:54;;;;;;;14.17;11.60;;;;;;;4.08;nan;98411.78;5034786;28;20218;-70
2022/11/06 03:22:26;;;;;;;13.83;11.63;;;;;;;4.01;nan;98410.81;5034117;28;20221;-70
2022/11/06 03:24:58;;;;;;;33.87;12.67;;;;;;;3.94;nan;98405.41;5035511;28;20292;-69
2022/11/06 03:27:51;;;;;;;11.77;10.57;;;;;;;3.95;nan;98400.97;5035262;28;20210;-70
2022/11/06 03:30:18;;;;;;;12.20;10.33;;;;;;;3.91;nan;98399.66;5028693;28;20268;-70
2022/11/06 03:33:09;;;;;;;14.77;10.27;;;;;;;3.85;nan;98405.63;5035178;28;20206;-69
2022/11/06 03:35:44;;;;;;;11.10;9.27;;;;;;;3.86;nan;98408.06;5034209;28;20558;-69
2022/11/06 03:38:19;;;;;;;12.93;9.83;;;;;;;3.78;nan;98409.88;5033983;28;20645;-69
2022/11/06 03:40:58;;;;;;;11.53;9.97;;;;;;;3.81;nan;98401.69;5035189;28;20259;-69
2022/11/06 03:43:30;;;;;;;11.17;10.07;;;;;;;3.89;nan;98396.41;5035030;28;20186;-70
2022/11/06 03:45:59;;;;;;;11.53;9.87;;;;;;;3.87;nan;98390.47;5035837;28;20202;-70
2022/11/06 03:48:33;;;;;;;13.50;9.67;;;;;;;3.75;nan;98389.22;5034701;28;20237;-70
2022/11/06 03:51:25;;;;;;;11.37;9.40;;;;;;;3.73;nan;98385.91;5035025;28;20217;-69
2022/11/06 03:53:56;;;;;;;14.13;9.10;;;;;;;3.75;nan;98383.94;5033918;28;20208;-69
2022/11/06 03:56:33;;;;;;;10.77;8.90;;;;;;;3.66;nan;98387.59;5034977;28;20200;-70
2022/11/06 03:59:04;;;;;;;9.80;8.87;;;;;;;3.58;nan;98383.16;5034995;28;20186;-69
2022/11/06 04:01:35;;;;;;;9.40;8.37;;;;;;;3.58;nan;98384.97;5034828;28;20711;-69
2022/11/06 04:04:11;;;;;;;11.10;9.13;;;;;;;3.49;nan;98388.59;5034924;28;20277;-70
2022/11/06 04:06:43;;;;;;;9.27;8.40;;;;;;;3.56;nan;98379.03;5033329;28;20200;-69
2022/11/06 04:14:49;;;;;;;11.87;9.83;;;;;;;3.23;nan;98364.31;5035032;28;20188;-69
2022/11/06 04:17:17;;;;;;;30.83;11.17;;;;;;;3.25;nan;98363.16;5034617;28;20192;-69
2022/11/06 04:19:51;;;;;;;18.90;10.47;;;;;;;3.26;nan;98364.78;5034447;28;20226;-69
2022/11/06 04:22:59;;;;;;;31.23;10.87;;;;;;;3.27;nan;98363.00;5034465;28;20239;-69
2022/11/06 04:29:02;;;;;;;20.87;10.50;;;;;;;3.46;nan;98362.63;5034059;28;20557;-69
2022/11/06 04:31:36;;;;;;;11.20;9.97;;;;;;;3.44;nan;98354.09;5027130;28;20229;-69
2022/11/06 04:34:27;;;;;;;17.23;9.53;;;;;;;3.29;nan;98346.06;5033073;28;20205;-69
2022/11/06 04:37:04;;;;;;;11.30;9.47;;;;;;;3.47;nan;98348.50;5033979;28;20190;-70
2022/11/06 04:40:03;;;;;;;10.17;9.17;;;;;;;3.48;nan;98344.91;5032996;28;20200;-69
2022/11/06 04:42:40;;;;;;;24.83;9.93;;;;;;;3.41;nan;98342.13;5009118;28;20661;-69
2022/11/06 04:45:14;;;;;;;64.43;11.20;;;;;;;3.29;nan;98340.03;5033709;28;20194;-69
2022/11/06 04:47:42;;;;;;;12.33;9.27;;;;;;;3.47;nan;98332.72;5032610;28;20691;-70
2022/11/06 04:50:11;;;;;;;10.23;8.97;;;;;;;3.64;nan;98339.59;5033939;28;20251;-69
2022/11/06 04:52:39;;;;;;;29.27;9.67;;;;;;;3.42;nan;98333.25;5033994;28;20236;-69
2022/11/06 04:55:06;;;;;;;83.40;11.60;;;;;;;3.36;nan;98327.84;5033997;28;20210;-69
2022/11/06 04:57:32;;;;;;;55.30;10.03;;;;;;;3.34;nan;98324.56;5033957;28;20201;-70
2022/11/06 04:59:59;;;;;;;83.27;11.60;;;;;;;3.15;nan;98315.22;5033226;28;20327;-69
2022/11/06 05:02:25;;;;;;;19.70;9.80;;;;;;;3.20;nan;98302.41;5033856;28;20206;-69
2022/11/06 05:04:52;;;;;;;9.57;8.50;;;;;;;3.29;nan;98319.00;5033761;28;20208;-69
2022/11/06 05:07:18;;;;;;;10.97;8.80;;;;;;;3.28;nan;98322.59;5033796;28;20567;-70
2022/11/06 05:09:45;;;;;;;8.90;8.00;;;;;;;3.32;nan;98332.63;5033725;28;20202;-69
2022/11/06 05:12:11;;;;;;;9.63;8.63;;;;;;;3.30;nan;98342.44;5033991;28;20620;-69
2022/11/06 05:14:38;;;;;;;9.00;7.90;;;;;;;3.40;nan;98352.78;5033606;28;20209;-70
2022/11/06 05:17:04;;;;;;;8.80;7.90;;;;;;;3.36;nan;98356.75;5033651;28;20202;-69
2022/11/06 05:19:30;;;;;;;10.17;8.23;;;;;;;3.17;nan;98346.59;5033266;28;20228;-70
2022/11/06 05:24:40;;;;;;;10.10;7.73;;;;;;;3.03;nan;98344.63;5033306;28;20252;-69
2022/11/06 05:27:07;;;;;;;8.87;7.97;;;;;;;3.06;nan;98344.28;5033020;28;20288;-69
2022/11/06 05:29:33;;;;;;;8.07;7.27;;;;;;;3.05;nan;98348.72;5033154;28;20217;-69
2022/11/06 05:31:59;;;;;;;8.17;7.33;;;;;;;3.00;nan;98347.56;5033523;28;20225;-70
2022/11/06 05:34:26;;;;;;;9.63;7.37;;;;;;;3.03;nan;98360.38;5033471;28;20596;-69
2022/11/06 05:36:52;;;;;;;8.20;6.63;;;;;;;3.04;nan;98362.84;5033404;28;20209;-69
2022/11/06 05:39:19;;;;;;;8.07;7.27;;;;;;;3.09;nan;98363.19;5033342;28;20212;-69
2022/11/06 05:41:45;;;;;;;8.00;7.20;;;;;;;3.02;nan;98356.13;5032928;28;20235;-70
2022/11/06 05:44:11;;;;;;;7.70;6.90;;;;;;;2.96;nan;98336.59;5033323;28;20210;-69
2022/11/06 05:46:38;;;;;;;9.57;7.47;;;;;;;3.04;nan;98325.25;5033253;28;20212;-70
2022/11/06 05:49:04;;;;;;;7.90;7.10;;;;;;;3.05;nan;98327.72;5032947;28;20216;-70
2022/11/06 05:51:30;;;;;;;9.20;7.30;;;;;;;3.06;nan;98339.84;5032843;28;20759;-69
2022/11/06 05:53:57;;;;;;;8.57;7.70;;;;;;;3.07;nan;98340.69;5033298;28;20751;-69
2022/11/06 05:56:23;;;;;;;9.37;7.80;;;;;;;3.00;nan;98324.78;5033050;28;20212;-70
2022/11/06 05:58:50;;;;;;;7.83;6.97;;;;;;;2.96;nan;98328.72;5032782;28;20692;-70
2022/11/06 06:01:16;;;;;;;8.63;7.83;;;;;;;3.05;nan;98342.66;5032889;28;20240;-70
2022/11/06 06:03:42;;;;;;;8.33;7.53;;;;;;;3.04;nan;98349.72;5032915;28;20206;-69
2022/11/06 06:06:09;;;;;;;9.63;7.70;;;;;;;2.99;nan;98352.00;5032863;28;20292;-69
2022/11/06 06:08:35;;;;;;;11.57;7.60;;;;;;;3.02;nan;98346.41;5033135;28;20296;-69
2022/11/06 06:11:06;;;;;;;38.33;9.33;;;;;;;2.75;nan;98344.13;5033098;28;20226;-70
2022/11/06 06:13:32;;;;;;;24.80;8.20;;;;;;;2.68;nan;98342.31;5036037;28;20201;-70
2022/11/06 06:16:01;;;;;;;19.00;7.93;;;;;;;2.66;nan;98339.84;5036859;28;20206;-70
2022/11/06 06:18:28;;;;;;;37.13;9.80;;;;;;;2.66;nan;98349.53;5037102;28;20292;-70
2022/11/06 06:20:54;;;;;;;30.60;9.87;;;;;;;2.85;nan;98359.72;5036911;28;20238;-70
2022/11/06 06:23:20;;;;;;;49.30;10.33;;;;;;;2.72;nan;98351.50;5036814;28;20206;-69
2022/11/06 06:25:47;;;;;;;71.67;10.83;;;;;;;2.73;nan;98340.00;5036689;28;20209;-70
2022/11/06 06:28:13;;;;;;;15.63;8.43;;;;;;;2.76;nan;98344.94;5036345;28;20212;-70
2022/11/06 06:30:39;;;;;;;14.07;8.63;;;;;;;2.87;nan;98347.25;5036543;28;20218;-69
2022/11/06 06:33:06;;;;;;;8.60;7.80;;;;;;;2.85;nan;98336.91;5036583;28;20213;-70
2022/11/06 06:35:33;;;;;;;8.10;7.23;;;;;;;2.80;nan;98333.94;5036541;28;20212;-70
2022/11/06 06:38:00;;;;;;;7.50;6.67;;;;;;;2.79;nan;98324.44;5036499;28;20208;-69
2022/11/06 06:40:28;;;;;;;7.33;6.63;;;;;;;2.61;nan;98334.25;5036316;28;20229;-69
2022/11/06 06:42:58;;;;;;;9.63;7.13;;;;;;;2.57;nan;98332.13;5036080;28;20210;-69
2022/11/06 06:45:25;;;;;;;11.33;7.80;;;;;;;2.78;nan;98337.72;5036346;28;20201;-70
2022/11/06 06:47:52;;;;;;;8.40;7.50;;;;;;;2.73;nan;98340.00;5036300;28;20308;-69
2022/11/06 06:50:18;;;;;;;29.10;7.97;;;;;;;2.76;nan;98332.63;5036179;28;20225;-69
2022/11/06 06:52:46;;;;;;;24.23;8.23;;;;;;;2.76;nan;98319.50;5035946;28;20209;-70
2022/11/06 06:55:12;;;;;;;68.07;9.20;;;;;;;2.84;nan;98314.25;5035888;28;20213;-70
2022/11/06 06:57:39;;;;;;;108.77;11.40;;;;;;;2.70;nan;98317.53;5036175;28;20305;-70
2022/11/06 07:00:06;;;;;;;82.23;10.20;;;;;;;2.78;nan;98314.09;5035978;28;20229;-70
2022/11/06 07:02:32;;;;;;;18.43;7.43;;;;;;;2.75;nan;98314.44;5035755;28;20688;-70
2022/11/06 07:04:58;;;;;;;21.80;7.70;;;;;;;2.83;nan;98307.38;5035907;28;20217;-70
2022/11/06 07:07:25;;;;;;;26.23;8.43;;;;;;;2.68;nan;98300.31;5035936;28;20228;-69
2022/11/06 07:09:51;;;;;;;7.70;6.90;;;;;;;2.78;nan;98295.72;5035800;28;20213;-70
2022/11/06 07:12:17;;;;;;;9.43;7.30;;;;;;;2.82;nan;98292.63;5035782;28;20212;-69
2022/11/06 07:14:44;;;;;;;8.97;8.00;;;;;;;2.92;nan;98290.63;5035759;28;20212;-70
2022/11/06 07:17:10;;;;;;;7.87;7.07;;;;;;;3.00;nan;98282.75;5035723;28;20206;-69
2022/11/06 07:19:36;;;;;;;8.63;7.73;;;;;;;3.00;nan;98276.66;5035402;28;20212;-69
2022/11/06 07:22:03;;;;;;;8.93;7.90;;;;;;;2.93;nan;98276.50;5035438;28;20238;-69
2022/11/06 07:24:29;;;;;;;9.07;8.17;;;;;;;2.97;nan;98274.34;5035083;28;20206;-69
2022/11/06 07:26:56;;;;;;;9.23;8.20;;;;;;;2.96;nan;98270.09;5035494;28;20206;-69
2022/11/06 07:29:22;;;;;;;9.03;8.13;;;;;;;3.06;nan;98254.97;5035541;28;20212;-70
2022/11/06 07:31:48;;;;;;;9.97;8.97;;;;;;;3.13;nan;98264.69;5035346;28;20595;-69
2022/11/06 07:34:15;;;;;;;10.37;8.50;;;;;;;2.92;nan;98263.53;5035411;28;20210;-69
2022/11/06 07:36:41;;;;;;;9.60;8.17;;;;;;;2.92;nan;98248.63;5035322;28;20213;-69
2022/11/06 07:39:07;;;;;;;10.90;8.97;;;;;;;2.92;nan;98258.28;5035079;28;20210;-69
2022/11/06 07:41:34;;;;;;;9.57;8.13;;;;;;;3.10;nan;98245.78;5035156;28;20238;-70
2022/11/06 07:44:00;;;;;;;10.07;8.67;;;;;;;2.96;nan;98247.31;5035246;28;20209;-70
2022/11/06 07:46:26;;;;;;;11.00;9.47;;;;;;;2.87;nan;98239.59;5035079;28;20213;-69
2022/11/06 07:48:53;;;;;;;9.20;7.77;;;;;;;2.87;nan;98235.16;5035831;28;20216;-70
2022/11/06 07:51:19;;;;;;;11.20;8.70;;;;;;;2.91;nan;98222.53;5034765;28;20648;-69
2022/11/06 07:53:46;;;;;;;8.73;7.77;;;;;;;2.96;nan;98228.09;5035076;28;20202;-69
2022/11/06 07:56:12;;;;;;;8.47;7.67;;;;;;;2.98;nan;98223.50;5042320;28;20202;-72
2022/11/06 07:58:39;;;;;;;7.13;6.43;;;;;;;3.10;nan;98209.84;5047265;28;20205;-70
2022/11/06 08:01:05;;;;;;;7.63;6.90;;;;;;;3.06;nan;98202.44;5044197;28;20225;-69
2022/11/06 08:03:33;;;;;;;8.30;6.97;;;;;;;2.97;nan;98198.22;5045166;28;20225;-69
2022/11/06 08:06:02;;;;;;;7.70;6.80;;;;;;;3.16;nan;98188.16;5043299;28;20194;-70
2022/11/06 08:08:30;;;;;;;6.90;6.23;;;;;;;3.22;nan;98186.66;5043403;28;20657;-70
2022/11/06 08:11:00;;;;;;;7.13;6.43;;;;;;;3.31;nan;98183.84;5044669;28;20213;-70
2022/11/06 08:13:27;;;;;;;8.03;6.40;;;;;;;3.30;nan;98189.25;5044405;28;20200;-70
2022/11/06 08:15:53;;;;;;;9.50;6.63;;;;;;;3.39;nan;98189.03;5043069;28;20213;-70
2022/11/06 08:18:20;;;;;;;7.47;6.73;;;;;;;3.35;nan;98179.06;5044590;28;20686;-70
2022/11/06 08:20:46;;;;;;;7.23;6.53;;;;;;;3.54;nan;98181.25;5043441;28;20214;-70
2022/11/06 08:23:13;;;;;;;7.57;6.87;;;;;;;3.61;nan;98175.16;5042658;28;20209;-69
2022/11/06 08:25:40;;;;;;;7.77;6.97;;;;;;;3.65;nan;98180.88;5042724;28;20208;-69
2022/11/06 08:28:06;;;;;;;7.83;7.03;;;;;;;3.75;nan;98181.50;5043741;28;20193;-69
2022/11/06 08:30:34;;;;;;;7.80;6.90;;;;;;;3.89;nan;98181.53;5044780;28;20253;-70
2022/11/06 08:33:02;;;;;;;8.03;7.23;;;;;;;3.95;nan;98178.25;5042758;28;20661;-70
2022/11/06 08:35:29;;;;;;;8.03;7.23;;;;;;;4.14;nan;98174.31;5042288;28;20277;-69
2022/11/06 08:37:56;;;;;;;8.87;7.07;;;;;;;4.25;nan;98179.97;5032838;28;20205;-69
2022/11/06 08:40:23;;;;;;;6.97;6.27;;;;;;;4.44;nan;98189.22;5032837;28;20226;-69
2022/11/06 08:42:49;;;;;;;7.80;7.10;;;;;;;4.58;nan;98184.00;5033721;28;20577;-70
2022/11/06 08:45:16;;;;;;;8.40;7.10;;;;;;;4.66;nan;98186.53;5033917;28;20205;-70
2022/11/06 08:47:42;;;;;;;7.83;7.10;;;;;;;4.82;nan;98178.50;5034126;28;20252;-69
2022/11/06 08:50:09;;;;;;;7.97;7.17;;;;;;;5.01;nan;98177.13;5033439;28;20206;-70
2022/11/06 08:52:36;;;;;;;8.80;7.90;;;;;;;5.20;nan;98177.41;5033459;28;20669;-70
2022/11/06 08:55:03;;;;;;;9.27;8.37;;;;;;;5.37;nan;98164.84;5033823;28;20292;-70
2022/11/06 08:57:29;;;;;;;8.30;7.47;;;;;;;5.51;nan;98150.84;5033893;28;20213;-70
2022/11/06 08:59:56;;;;;;;8.27;7.40;;;;;;;5.63;nan;98155.47;5033817;28;20206;-70
2022/11/06 09:02:22;;;;;;;8.53;7.13;;;;;;;5.77;nan;98157.25;5033496;28;20229;-70
2022/11/06 09:04:48;;;;;;;7.27;6.57;;;;;;;5.84;nan;98158.16;5033611;28;20209;-70
2022/11/06 09:07:16;;;;;;;8.30;6.70;;;;;;;5.89;nan;98154.97;5033593;28;20206;-70
2022/11/06 09:09:42;;;;;;;7.60;6.90;;;;;;;5.93;nan;98157.03;5033921;28;20213;-70
2022/11/06 09:12:08;;;;;;;7.97;7.17;;;;;;;6.09;nan;98153.34;5033285;28;20224;-70
2022/11/06 09:14:35;;;;;;;7.47;6.50;;;;;;;6.16;nan;98162.16;5034152;28;20212;-69
2022/11/06 09:17:01;;;;;;;6.90;6.20;;;;;;;6.27;nan;98161.63;5033532;28;20217;-70
2022/11/06 09:19:28;;;;;;;8.53;6.60;;;;;;;6.24;nan;98162.03;5033912;28;20210;-70
2022/11/06 09:21:54;;;;;;;7.50;6.30;;;;;;;6.30;nan;98159.47;5033208;28;20229;-70
2022/11/06 09:24:21;;;;;;;8.03;6.73;;;;;;;6.38;nan;98163.78;5033337;28;20209;-70
2022/11/06 09:26:47;;;;;;;7.83;7.00;;;;;;;6.43;nan;98185.16;5033353;28;20303;-70
2022/11/06 09:29:14;;;;;;;7.10;6.40;;;;;;;6.34;nan;98200.28;5033320;28;20212;-70
2022/11/06 09:31:41;;;;;;;7.23;6.23;;;;;;;6.43;nan;98209.72;5033162;28;20304;-70
2022/11/06 09:34:08;;;;;;;7.30;6.60;;;;;;;6.67;nan;98204.06;5033281;28;20248;-70
2022/11/06 09:36:35;;;;;;;6.83;6.13;;;;;;;6.74;nan;98193.56;5033298;28;20208;-70
2022/11/06 09:39:02;;;;;;;7.90;7.10;;;;;;;6.90;nan;98187.97;5032799;28;20218;-70
2022/11/06 09:42:00;;;;;;;7.13;5.73;;;;;;;7.01;nan;98176.88;5032751;28;20232;-70
2022/11/06 09:45:08;;;;;;;6.60;5.90;;;;;;;7.06;nan;98167.34;5033082;28;20201;-70
2022/11/06 09:47:41;;;;;;;7.50;6.67;;;;;;;7.15;nan;98170.66;5030224;28;20665;-70
2022/11/06 09:50:16;;;;;;;7.70;6.63;;;;;;;7.24;nan;98169.50;5036928;28;20194;-70
2022/11/06 09:52:54;;;;;;;7.90;7.00;;;;;;;7.38;nan;98158.78;5037161;28;20255;-70
2022/11/06 09:55:31;;;;;;;7.23;6.37;;;;;;;7.65;nan;98142.00;5037379;28;20189;-70
2022/11/06 09:58:02;;;;;;;7.03;6.40;;;;;;;7.61;nan;98145.25;5036827;28;20209;-70
2022/11/06 10:00:29;;;;;;;6.03;5.43;;;;;;;7.63;nan;98141.41;5036738;28;20236;-70
2022/11/06 10:03:04;;;;;;;7.50;6.70;;;;;;;7.85;nan;98134.13;5036989;28;20206;-70
2022/11/06 10:05:33;;;;;;;6.63;6.03;;;;;;;7.94;nan;98130.28;5037113;28;20190;-70
2022/11/06 10:08:07;;;;;;;6.70;6.00;;;;;;;7.90;nan;98123.75;5036726;28;20670;-70
2022/11/06 10:10:54;;;;;;;6.33;5.73;;;;;;;7.91;nan;98112.16;5036827;28;20316;-70
2022/11/06 10:13:30;;;;;;;6.23;5.63;;;;;;;7.84;nan;98116.63;5036995;28;20190;-70
2022/11/06 10:16:10;;;;;;;6.63;5.80;;;;;;;7.96;nan;98120.31;5036734;28;20300;-70
2022/11/06 10:19:07;;;;;;;7.37;6.53;;;;;;;8.02;nan;98111.56;5036703;28;20244;-71
2022/11/06 10:21:52;;;;;;;6.50;5.90;;;;;;;7.94;nan;98109.94;5036582;28;20238;-70
2022/11/06 10:24:38;;;;;;;6.90;6.10;;;;;;;7.99;nan;98106.66;5036681;28;20194;-70
2022/11/06 10:27:14;;;;;;;6.93;6.20;;;;;;;7.97;nan;98096.28;5036581;28;20280;-71
2022/11/06 10:30:08;;;;;;;6.87;6.07;;;;;;;8.09;nan;98085.91;5036364;28;20194;-71
2022/11/06 10:32:56;;;;;;;8.17;6.30;;;;;;;8.07;nan;98078.19;5036384;28;20606;-70
2022/11/06 10:35:41;;;;;;;8.10;6.67;;;;;;;8.07;nan;98080.00;5036504;28;20206;-70
2022/11/06 10:38:19;;;;;;;7.13;6.43;;;;;;;8.18;nan;98077.56;5036511;28;20204;-70
2022/11/06 10:40:49;;;;;;;6.27;5.67;;;;;;;8.15;nan;98066.59;5036168;28;20229;-70
2022/11/06 10:43:31;;;;;;;6.53;5.93;;;;;;;8.44;nan;98063.53;5036002;28;20202;-70
2022/11/06 10:46:01;;;;;;;6.90;6.20;;;;;;;8.36;nan;98061.91;5035962;28;20190;-70
2022/11/06 10:48:38;;;;;;;7.20;6.50;;;;;;;8.25;nan;98059.06;5035742;28;20576;-70
2022/11/06 10:51:31;;;;;;;7.03;6.33;;;;;;;8.19;nan;98051.91;5036019;28;20222;-70
2022/11/06 10:54:12;;;;;;;6.93;6.13;;;;;;;8.18;nan;98047.63;5036133;28;20635;-71
2022/11/06 10:57:09;;;;;;;7.90;6.37;;;;;;;8.11;nan;98041.53;5036124;28;20195;-70
2022/11/06 10:59:35;;;;;;;8.13;7.07;;;;;;;8.06;nan;98033.38;5034782;28;20201;-70
2022/11/06 11:02:02;;;;;;;7.33;6.10;;;;;;;8.08;nan;98015.44;5035349;28;20238;-70
2022/11/06 11:04:32;;;;;;;9.17;6.90;;;;;;;8.36;nan;98019.53;5035571;28;20224;-70
2022/11/06 11:07:13;;;;;;;6.87;6.07;;;;;;;8.18;nan;98011.38;5034691;28;20209;-70
2022/11/06 11:09:39;;;;;;;8.70;7.30;;;;;;;8.13;nan;98008.53;5034672;28;20623;-70
2022/11/06 11:12:20;;;;;;;7.63;6.90;;;;;;;8.25;nan;97996.34;5035707;28;20222;-71
2022/11/06 11:15:05;;;;;;;8.97;6.53;;;;;;;8.38;nan;97980.41;5035653;28;20186;-70
2022/11/06 11:17:32;;;;;;;7.60;6.80;;;;;;;8.48;nan;97964.09;5035496;28;20194;-70
2022/11/06 11:20:00;;;;;;;6.60;5.93;;;;;;;8.66;nan;97957.13;5035142;28;20699;-70
2022/11/06 11:22:27;;;;;;;6.47;5.87;;;;;;;8.53;nan;97951.03;5034936;28;20320;-70
2022/11/06 11:25:08;;;;;;;6.70;6.00;;;;;;;8.61;nan;97945.50;5035224;28;20213;-70
2022/11/06 11:27:42;;;;;;;7.33;6.07;;;;;;;8.68;nan;97949.75;5035229;28;20206;-70
2022/11/06 11:30:21;;;;;;;6.40;5.50;;;;;;;8.80;nan;97936.66;5035153;28;20190;-70
2022/11/06 11:32:48;;;;;;;5.97;5.20;;;;;;;8.80;nan;97926.06;5035167;28;20713;-70
2022/11/06 11:35:20;;;;;;;6.10;5.33;;;;;;;9.00;nan;97924.94;5035303;28;20213;-70
2022/11/06 11:37:47;;;;;;;6.20;5.60;;;;;;;8.97;nan;97916.59;5034924;28;20643;-70
2022/11/06 11:40:35;;;;;;;5.97;5.47;;;;;;;9.15;nan;97922.00;5034995;28;20222;-70
2022/11/06 11:43:19;;;;;;;5.10;4.60;;;;;;;9.15;nan;97919.34;5034857;28;20237;-70
2022/11/06 11:46:08;;;;;;;5.70;5.07;;;;;;;9.36;nan;97913.69;5034508;28;20216;-70
2022/11/06 11:48:50;;;;;;;4.70;4.13;;;;;;;9.47;nan;97895.28;5034920;28;20194;-70
2022/11/06 11:51:29;;;;;;;4.43;3.67;;;;;;;9.47;nan;97889.16;5034675;28;20226;-70
2022/11/06 11:54:06;;;;;;;5.00;3.63;;;;;;;9.44;nan;97886.91;5034790;28;20280;-70
2022/11/06 11:56:34;;;;;;;4.33;3.93;;;;;;;9.54;nan;97876.63;5033625;28;20194;-70
2022/11/06 11:59:02;;;;;;;4.20;3.43;;;;;;;9.52;nan;97868.91;5033217;28;20206;-71
2022/11/06 12:01:38;;;;;;;5.47;4.20;;;;;;;9.68;nan;97865.69;5034265;28;20228;-70
2022/11/06 12:04:18;;;;;;;4.80;4.20;;;;;;;9.72;nan;97855.44;5034647;28;20190;-70
2022/11/06 12:07:26;;;;;;;4.00;3.70;;;;;;;9.68;nan;97870.19;5034406;28;20198;-70
2022/11/06 12:09:52;;;;;;;4.13;3.77;;;;;;;9.68;nan;97862.25;5023048;28;20213;-70
2022/11/06 12:12:36;;;;;;;4.67;4.13;;;;;;;9.76;nan;97862.75;5034530;28;20209;-70
2022/11/06 12:15:06;;;;;;;4.73;4.23;;;;;;;9.71;nan;97854.66;5034396;28;20219;-70
2022/11/06 12:17:35;;;;;;;4.40;4.00;;;;;;;9.73;nan;97849.13;5034103;28;20669;-70
2022/11/06 12:20:08;;;;;;;4.63;4.23;;;;;;;9.77;nan;97855.63;5034240;28;20228;-70
2022/11/06 12:22:39;;;;;;;4.80;4.40;;;;;;;9.85;nan;97850.00;5034127;28;20680;-70
2022/11/06 12:25:13;;;;;;;4.43;4.03;;;;;;;9.91;nan;97843.84;5034037;28;20641;-70
2022/11/06 12:27:47;;;;;;;5.30;4.80;;;;;;;9.99;nan;97836.38;5034303;28;20190;-70